Terminal Aerodrome Forecast
Issued by NWS

Home | Current Version | Previous Version | Text Only | Print | Product List | Glossary On
Versions: 1 2 3 4 5 6 7 8 9 10 11 12 13 14 15 16 17 18 19
000
FTUS45 KABQ 210100 AAA
TAFROW
TAF AMD
KROW 210127Z 2101/2124 19006KT P6SM VCSH OVC040
      TEMPO 2101/2103 18012G20KT
     FM211000 VRB04KT P6SM OVC030
     FM211500 23005KT P6SM -SHRA OVC025=

USA.gov is the U.S. government's official web portal to all federal, state and local government web resources and services.